This is the latest recevied weather packets stored in our database for station/object IA5KRO-13. If no packets are shown the sender has not sent any weather packets the latest 10 day(s).
| Time | Temp. | Humidity | Pressure | Rain* | Wind** | Luminosity | Snow |
|---|---|---|---|---|---|---|---|
| 1777992613 | 20° C | 79% | 1020 hPa | 0 mm | - | - | - |
| 1777992314 | 20° C | 79% | 1020 hPa | 0 mm | - | - | - |
| 1777992013 | 20° C | 80% | 1020 hPa | 0 mm | - | - | - |
| 1777991709 | 20° C | 79% | 1020 hPa | 0 mm | - | - | - |
| 1777991425 | 20° C | 78% | 1020 hPa | 0 mm | - | - | - |
| 1777991109 | 21.11° C | 76% | 1020 hPa | 0 mm | - | - | - |
| 1777990813 | 22.78° C | 69% | 1020 hPa | 0 mm | - | - | - |
| 1777990515 | 23.89° C | 65% | 1020 hPa | 0 mm | - | - | - |
| 1777989910 | 22.22° C | 72% | 1020 hPa | 0 mm | - | - | - |
| 1777989634 | 22.22° C | 70% | 1020 hPa | 0 mm | - | - | - |
| 1777989311 | 22.78° C | 67% | 1020 hPa | 0 mm | - | - | - |
| 1777988713 | 22.78° C | 71% | 1020 hPa | 0 mm | - | - | - |
| 1777988415 | 22.78° C | 70% | 1020 hPa | 0 mm | - | - | - |
| 1777988111 | 22.78° C | 69% | 1020 hPa | 0 mm | - | - | - |
| 1777987823 | 22.78° C | 70% | 1020 hPa | 0 mm | - | - | - |
| 1777987510 | 22.78° C | 68% | 1020 hPa | 0 mm | - | - | - |
| 1777987213 | 22.78° C | 65% | 1020 hPa | 0 mm | - | - | - |
| 1777986913 | 23.89° C | 65% | 1020 hPa | 0 mm | - | - | - |
| 1777986613 | 23.89° C | 67% | 1020 hPa | 0 mm | - | - | - |
| 1777986309 | 25° C | 62% | 1020 hPa | 0 mm | - | - | - |
| 1777986033 | 25° C | 64% | 1020 hPa | 0 mm | - | - | - |
| 1777985709 | 26.11° C | 62% | 1020 hPa | 0 mm | - | - | - |
| 1777985413 | 25° C | 63% | 1020 hPa | 0 mm | - | - | - |
| 1777985113 | 22.78° C | 68% | 1020 hPa | 0 mm | - | - | - |
| 1777984813 | 22.78° C | 70% | 1020 hPa | 0 mm | - | - | - |
* Rain latest hour (hover to see other rain measurements)
** Current wind speed in m/s (hover to see current wind gust speed)